Owen, WI

2:38 PM CST on December 21, 2014 (GMT -0600)
Marshfield Municipal | Change Station
CLOSE
Current Station
Airport
Location: Marshfield,
Elevation: 1276 ft
Nearby Weather Stations

Elev 1276 ft 44.64 °N, 90.19 °W | Updated 10 minutes ago

Snow
Snow
34 °F
Feels Like 26 °F
N
12
Wind Variable Wind from SSE

Today
High -- | Low -- °F
--% Chance of Precip.
Yesterday
High -- | Low -- °F
Precip. -- in
7:37 AM 4:23 PM
Waning Crescent, 0% visible
Pressure 29.89 in
Visibility 1.0 miles
Clouds Overcast 300 ft
Windchill 26 °F
Dew Point 32 °F
Humidity 92%
Rainfall 0.00 in
Snow Depth Not available.
UV 0 out of 12
Pollen .10 out of 12
Air Quality Not available.
Flu Activity Not available.
SPECI KMFI 212028Z AUTO 16010KT 1SM -SN BR OVC003 01/00 A2989 RMK AO2 P0000 T00110000

More Conditions Fewer Conditions

Pressure 29.89 in
Visibility 1.0 miles
Clouds Overcast 300 ft
Windchill 26 °F
Dew Point 32 °F
Humidity 92%
Rainfall 0.00 in
Snow Depth Not available.
UV 0 out of 12
Pollen .10 out of 12
Air Quality Not available.
Flu Activity Not available.
SPECI KMFI 212028Z AUTO 16010KT 1SM -SN BR OVC003 01/00 A2989 RMK AO2 P0000 T00110000

More Conditions Fewer Conditions

Nowcast | as of 1:54 PM CST on December 21, 2014

light snow and rain will continue to fall...especially north of Highway 29. Light accumulations are possible...up to an inch but temperatures will remain near the freezing mark so some of it will melt.

×

10-Day Weather Forecast

Almanac

Astronomy

Dec. 21, 2014 Rise Set
Actual Time
Civil Twilight
Nautical Twilight
Astronomical Twilight
Moon
Length of Visible Light
Length of Day
Tomorrow will be .
, % of the Moon is Illuminated

Today's Extremes

State Highs State Lows

Community

WunderPhotos

Upload Photos

1,779,471 photos uploaded!

WunderBlogs® & News

Nearby

Air Quality

  Air Quality AQ Index Pollutant
Not available.

Snow Depth

Station Depth Elevation

Earthquake Activity

City Distance Mag. Time & Date
Minimum magnitude displayed is 2.5.

Coastal Water Temperatures

Place Temperature

Nearby Weather Stations